Time;durP1;ratioP1;P1;durP2;ratioP2;P2;SDS_P1;SDS_P2;PMS_P1;PMS_P2;Temp;Humidity;BMP_temperature;BMP_pressure;BME280_temperature;BME280_humidity;BME280_pressure;Samples;Min_cycle;Max_cycle;Signal;HPM_P1;HPM_P2
2024/01/13 00:04:42;;;;;;;36.77;20.63;;;;;2.80;102412.00;;;;9764810;30;20233;-75
2024/01/13 00:09:43;;;;;;;36.10;20.83;;;;;2.80;102403.00;;;;9768147;30;21065;-75
2024/01/13 00:14:45;;;;;;;36.77;20.43;;;;;2.80;102407.00;;;;9760421;30;20233;-76
2024/01/13 00:19:46;;;;;;;39.03;21.50;;;;;2.70;102403.00;;;;9772056;30;20950;-78
2024/01/13 00:24:48;;;;;;;41.83;23.53;;;;;2.80;102395.00;;;;9747453;30;20240;-78
2024/01/13 00:29:49;;;;;;;43.93;22.03;;;;;2.70;102383.00;;;;9762374;30;20313;-79
2024/01/13 00:34:50;;;;;;;36.10;22.30;;;;;2.80;102383.00;;;;9781060;30;20237;-74
2024/01/13 00:39:51;;;;;;;42.93;22.33;;;;;2.80;102378.00;;;;9770522;30;20720;-79
2024/01/13 00:44:52;;;;;;;39.47;22.13;;;;;2.80;102378.00;;;;9766001;30;20245;-77
2024/01/13 00:49:54;;;;;;;37.13;22.20;;;;;2.80;102373.00;;;;9791631;30;20238;-77
2024/01/13 00:54:55;;;;;;;35.00;21.43;;;;;2.80;102374.00;;;;9772184;30;20229;-82
2024/01/13 00:59:56;;;;;;;35.20;21.20;;;;;2.80;102362.00;;;;9768467;30;20604;-81
2024/01/13 01:04:57;;;;;;;36.43;21.37;;;;;2.80;102349.00;;;;9738434;30;20312;-80
2024/01/13 01:09:59;;;;;;;35.77;20.73;;;;;2.70;102358.00;;;;9752273;30;20240;-78
2024/01/13 01:15:00;;;;;;;34.53;19.80;;;;;2.70;102350.00;;;;9765045;30;20230;-80
2024/01/13 01:20:02;;;;;;;31.50;20.23;;;;;2.80;102355.00;;;;9773968;30;20933;-81
2024/01/13 01:25:04;;;;;;;30.00;19.53;;;;;2.80;102346.00;;;;9740460;30;20233;-81
2024/01/13 01:30:06;;;;;;;26.10;18.50;;;;;2.80;102345.00;;;;9766144;30;20241;-81
2024/01/13 01:35:07;;;;;;;30.97;18.77;;;;;2.80;102337.00;;;;9754892;30;20229;-79
2024/01/13 01:40:13;;;;;;;25.73;16.23;;;;;2.80;102336.00;;;;9766724;30;20243;-80
2024/01/13 01:45:14;;;;;;;33.03;17.37;;;;;2.80;102336.00;;;;9762767;30;20233;-80
2024/01/13 01:50:16;;;;;;;28.70;17.33;;;;;2.80;102323.00;;;;9745849;30;20272;-79
2024/01/13 01:55:17;;;;;;;26.37;15.87;;;;;2.80;102323.00;;;;9763304;30;20230;-78
2024/01/13 02:00:19;;;;;;;28.50;17.37;;;;;2.80;102319.00;;;;9771077;30;20245;-86
2024/01/13 02:05:21;;;;;;;25.03;16.53;;;;;2.80;102311.00;;;;9774931;30;20636;-86
2024/01/13 02:10:22;;;;;;;24.80;16.23;;;;;2.80;102309.00;;;;9746681;30;20242;-84
2024/01/13 02:15:23;;;;;;;24.60;15.00;;;;;2.80;102317.00;;;;9777231;30;20248;-85
2024/01/13 02:20:25;;;;;;;25.83;14.93;;;;;2.80;102306.00;;;;9754575;30;20241;-86
2024/01/13 02:25:26;;;;;;;23.97;14.97;;;;;2.80;102296.00;;;;9776397;30;20225;-85
2024/01/13 02:30:27;;;;;;;23.10;14.63;;;;;2.80;102295.00;;;;9759754;30;20261;-86
2024/01/13 02:35:28;;;;;;;25.03;15.67;;;;;2.80;102291.00;;;;9775340;30;20241;-87
2024/01/13 02:40:29;;;;;;;25.83;15.87;;;;;2.80;102284.00;;;;9756834;30;20244;-86
2024/01/13 02:45:30;;;;;;;25.63;15.87;;;;;2.80;102284.00;;;;9791449;30;20265;-85
2024/01/13 02:50:32;;;;;;;24.37;15.43;;;;;2.80;102274.00;;;;9758198;30;20890;-85
2024/01/13 02:55:34;;;;;;;20.30;12.73;;;;;2.80;102275.00;;;;9754887;30;20237;-85
2024/01/13 03:00:35;;;;;;;20.47;12.77;;;;;2.80;102266.00;;;;9750804;30;20237;-83
2024/01/13 03:05:36;;;;;;;18.73;13.30;;;;;2.80;102257.00;;;;9757208;30;20233;-83
2024/01/13 03:10:37;;;;;;;24.67;12.80;;;;;2.80;102270.00;;;;9791724;30;20250;-82
2024/01/13 03:15:38;;;;;;;24.73;13.60;;;;;2.80;102257.00;;;;9756460;30;20233;-85
2024/01/13 03:20:40;;;;;;;20.03;13.23;;;;;2.90;102255.00;;;;9749741;30;20920;-80
2024/01/13 03:25:41;;;;;;;19.10;13.37;;;;;2.90;102252.00;;;;9744412;30;20271;-79
2024/01/13 03:30:42;;;;;;;21.33;14.17;;;;;3.00;102245.00;;;;9776295;30;20267;-80
2024/01/13 03:35:43;;;;;;;22.23;14.90;;;;;3.00;102238.00;;;;9748001;30;20924;-80
2024/01/13 03:40:44;;;;;;;24.00;13.93;;;;;3.00;102238.00;;;;9742010;30;20235;-79
2024/01/13 03:45:45;;;;;;;28.63;15.07;;;;;3.00;102224.00;;;;9778744;30;20225;-79
2024/01/13 03:50:46;;;;;;;27.87;16.03;;;;;3.00;102222.00;;;;9765034;30;20229;-79
2024/01/13 03:55:48;;;;;;;27.47;16.30;;;;;2.90;102215.00;;;;9762422;30;20241;-81
2024/01/13 04:00:49;;;;;;;25.47;15.50;;;;;2.90;102205.00;;;;9774650;30;20664;-82
2024/01/13 04:05:54;;;;;;;22.53;14.83;;;;;2.90;102190.00;;;;9733241;30;20244;-80
2024/01/13 04:10:56;;;;;;;27.00;14.63;;;;;2.90;102190.00;;;;9732818;30;20644;-80
2024/01/13 04:15:57;;;;;;;23.17;14.50;;;;;2.90;102170.00;;;;9744602;30;20343;-79
2024/01/13 04:20:58;;;;;;;20.10;14.20;;;;;2.90;102168.00;;;;9772832;30;20730;-81
2024/01/13 04:26:17;;;;;;;20.10;13.03;;;;;2.90;102166.00;;;;9762308;30;20237;-80
2024/01/13 04:31:19;;;;;;;19.10;13.53;;;;;2.90;102166.00;;;;9764868;30;20373;-79
2024/01/13 04:36:20;;;;;;;20.37;13.60;;;;;2.80;102160.00;;;;9765515;30;20245;-79
2024/01/13 04:41:21;;;;;;;20.90;14.03;;;;;2.80;102143.00;;;;9773356;30;20360;-80
2024/01/13 04:46:22;;;;;;;22.97;13.40;;;;;2.80;102134.00;;;;9754554;30;20237;-79
2024/01/13 04:51:24;;;;;;;21.07;13.83;;;;;2.90;102126.00;;;;9762355;30;20236;-80
2024/01/13 04:56:25;;;;;;;22.00;12.43;;;;;2.90;102136.00;;;;9746709;30;20269;-78
2024/01/13 05:01:26;;;;;;;19.10;11.60;;;;;2.90;102134.00;;;;9760369;30;20254;-78
2024/01/13 05:06:27;;;;;;;18.93;12.53;;;;;2.90;102139.00;;;;9748439;30;20324;-76
2024/01/13 05:11:28;;;;;;;17.73;12.73;;;;;2.90;102131.00;;;;9746765;30;20245;-78
2024/01/13 05:16:30;;;;;;;22.20;12.03;;;;;2.80;102118.00;;;;9746518;30;20237;-80
2024/01/13 05:21:31;;;;;;;19.40;12.13;;;;;2.80;102125.00;;;;9749245;30;20914;-81
2024/01/13 05:26:32;;;;;;;17.53;11.27;;;;;2.80;102114.00;;;;9770555;30;20237;-78
2024/01/13 05:31:33;;;;;;;17.50;10.30;;;;;2.80;102110.00;;;;9776663;30;20229;-79
2024/01/13 05:36:35;;;;;;;20.77;10.67;;;;;2.80;102114.00;;;;9756348;30;20237;-79
2024/01/13 05:41:36;;;;;;;16.90;11.30;;;;;2.90;102097.00;;;;9753961;30;20281;-80
2024/01/13 05:46:37;;;;;;;17.77;11.10;;;;;2.90;102102.00;;;;9730799;30;20239;-79
2024/01/13 05:51:38;;;;;;;19.10;10.43;;;;;2.90;102097.00;;;;9765933;30;20291;-79
2024/01/13 05:56:39;;;;;;;13.67;10.10;;;;;2.90;102094.00;;;;9756599;30;20241;-80
2024/01/13 06:01:41;;;;;;;14.40;9.53;;;;;2.90;102100.00;;;;9746492;30;20233;-80
2024/01/13 06:06:42;;;;;;;13.47;8.83;;;;;2.90;102098.00;;;;9755700;30;20233;-80
2024/01/13 06:11:43;;;;;;;13.73;8.70;;;;;2.90;102095.00;;;;9770245;30;20971;-78
2024/01/13 06:16:44;;;;;;;11.77;8.87;;;;;2.90;102100.00;;;;9757753;30;20248;-79
2024/01/13 06:21:46;;;;;;;13.60;8.90;;;;;2.90;102094.00;;;;9750722;30;20257;-80
2024/01/13 06:26:48;;;;;;;14.10;10.13;;;;;2.90;102090.00;;;;9766898;30;21022;-80
2024/01/13 06:31:49;;;;;;;13.67;9.43;;;;;2.90;102096.00;;;;9751577;30;20273;-79
2024/01/13 06:36:51;;;;;;;18.37;10.83;;;;;2.90;102090.00;;;;9773082;30;20233;-79
2024/01/13 06:41:52;;;;;;;17.00;11.87;;;;;2.90;102085.00;;;;9760957;30;20632;-79
2024/01/13 06:46:53;;;;;;;15.63;11.37;;;;;2.90;102112.00;;;;9749416;30;20233;-79
2024/01/13 06:51:54;;;;;;;16.27;11.67;;;;;2.90;102115.00;;;;9771107;30;20254;-86
2024/01/13 06:56:55;;;;;;;21.00;11.77;;;;;2.90;102099.00;;;;9748800;30;20237;-84
2024/01/13 07:01:56;;;;;;;16.47;11.93;;;;;2.90;102099.00;;;;9765153;30;20244;-82
2024/01/13 07:06:57;;;;;;;20.30;13.63;;;;;2.80;102089.00;;;;9760531;30;20233;-83
2024/01/13 07:11:59;;;;;;;19.90;13.90;;;;;2.80;102059.00;;;;9748426;30;20253;-83
2024/01/13 07:17:00;;;;;;;22.40;14.57;;;;;2.80;102075.00;;;;9761260;30;20315;-83
2024/01/13 07:22:02;;;;;;;21.67;14.53;;;;;2.80;102070.00;;;;9747811;30;20261;-83
2024/01/13 07:27:03;;;;;;;21.70;13.67;;;;;2.80;102042.00;;;;9751501;30;20245;-82
2024/01/13 07:32:05;;;;;;;22.47;15.00;;;;;2.80;102031.00;;;;9770979;30;20328;-84
2024/01/13 07:37:06;;;;;;;24.07;14.50;;;;;2.80;102034.00;;;;9755461;30;20262;-86
2024/01/13 07:42:07;;;;;;;19.63;14.10;;;;;2.80;102020.00;;;;9795098;30;20233;-84
2024/01/13 07:47:08;;;;;;;24.70;14.13;;;;;2.90;102014.00;;;;9752907;30;20229;-86
2024/01/13 07:52:09;;;;;;;23.00;13.60;;;;;2.90;102014.00;;;;9775799;30;20325;-87
2024/01/13 07:57:12;;;;;;;22.00;14.67;;;;;2.90;102012.00;;;;9743589;30;20243;-86
2024/01/13 08:02:14;;;;;;;23.03;15.20;;;;;2.90;102005.00;;;;9786100;30;20242;-87
2024/01/13 08:07:15;;;;;;;27.80;15.47;;;;;3.00;102011.00;;;;9774903;30;20260;-85
2024/01/13 08:12:16;;;;;;;25.37;16.03;;;;;3.00;101989.00;;;;9748117;30;20241;-84
2024/01/13 08:17:18;;;;;;;28.70;17.20;;;;;3.00;101983.00;;;;9753848;30;20260;-84
2024/01/13 08:22:19;;;;;;;31.20;18.13;;;;;3.00;101983.00;;;;9792592;30;20401;-85
2024/01/13 08:27:20;;;;;;;31.13;18.90;;;;;3.00;101977.00;;;;9769312;30;20249;-84
2024/01/13 08:32:21;;;;;;;33.23;18.87;;;;;3.00;101972.00;;;;9789438;30;20232;-83
2024/01/13 08:37:23;;;;;;;35.13;18.33;;;;;3.00;101969.00;;;;9784743;30;20247;-85
2024/01/13 08:42:24;;;;;;;29.40;18.43;;;;;3.10;101970.00;;;;9796039;30;20246;-84
2024/01/13 08:47:25;;;;;;;31.43;18.33;;;;;3.10;101959.00;;;;9948028;24;20245;-83
2024/01/13 08:52:26;;;;;;;30.73;19.03;;;;;3.20;101947.00;;;;10128023;24;20235;-83
2024/01/13 08:57:31;;;;;;;35.30;19.33;;;;;3.20;101937.00;;;;9939550;24;20238;-84
2024/01/13 09:02:32;;;;;;;31.57;19.57;;;;;3.20;101956.00;;;;10144987;24;20260;-85
2024/01/13 09:07:37;;;;;;;29.33;18.07;;;;;3.20;101964.00;;;;10210838;24;21250;-84
2024/01/13 09:12:39;;;;;;;33.80;18.90;;;;;3.20;101950.00;;;;9962351;24;20236;-83
2024/01/13 09:17:40;;;;;;;32.97;19.97;;;;;3.20;101953.00;;;;9806258;29;20767;-82
2024/01/13 09:22:41;;;;;;;37.93;20.57;;;;;3.20;101963.00;;;;9817407;29;20588;-82
2024/01/13 09:27:42;;;;;;;32.43;20.30;;;;;3.20;101972.00;;;;9819916;29;20891;-82
2024/01/13 09:32:43;;;;;;;29.73;19.63;;;;;3.30;101987.00;;;;9831813;29;20247;-82
2024/01/13 09:37:45;;;;;;;32.63;19.70;;;;;3.20;101987.00;;;;9825987;29;20841;-81
2024/01/13 09:43:09;;;;;;;33.93;18.30;;;;;3.30;101969.00;;;;9830026;29;20303;-82
2024/01/13 09:48:15;;;;;;;32.80;19.40;;;;;3.30;101965.00;;;;9818900;29;20244;-81
2024/01/13 09:53:28;;;;;;;37.07;18.77;;;;;3.30;101965.00;;;;9859425;29;20719;-81
2024/01/13 09:58:29;;;;;;;32.43;20.03;;;;;3.30;101971.00;;;;9813026;30;20232;-81
2024/01/13 10:03:30;;;;;;;29.50;18.50;;;;;3.30;101978.00;;;;9807945;29;20252;-81
2024/01/13 10:08:33;;;;;;;36.73;18.93;;;;;3.20;101982.00;;;;9845133;29;20247;-84
2024/01/13 10:13:36;;;;;;;31.07;19.03;;;;;3.30;101979.00;;;;9842733;29;20331;-83
2024/01/13 10:18:38;;;;;;;33.27;19.43;;;;;3.20;101987.00;;;;9817077;29;20315;-82
2024/01/13 10:23:39;;;;;;;30.27;19.80;;;;;3.20;101981.00;;;;9793285;29;20232;-77
2024/01/13 10:28:40;;;;;;;32.07;20.33;;;;;3.30;101957.00;;;;9859419;29;20237;-75
2024/01/13 10:33:45;;;;;;;39.17;19.77;;;;;3.30;101958.00;;;;9836208;29;20797;-77
2024/01/13 10:38:46;;;;;;;31.13;18.83;;;;;3.40;101954.00;;;;9813811;29;20232;-77
2024/01/13 10:43:55;;;;;;;35.07;20.03;;;;;3.40;101938.00;;;;9821085;29;20284;-75
2024/01/13 10:49:02;;;;;;;33.63;21.23;;;;;3.40;101927.00;;;;9828220;29;20740;-82
2024/01/13 10:54:04;;;;;;;31.93;19.47;;;;;3.40;101912.00;;;;9821614;29;20232;-80
2024/01/13 10:59:06;;;;;;;29.90;19.80;;;;;3.40;101898.00;;;;9832465;29;20236;-78
2024/01/13 11:04:08;;;;;;;31.30;18.77;;;;;3.50;101890.00;;;;9803751;29;20243;-78
2024/01/13 11:09:12;;;;;;;31.53;20.23;;;;;3.50;101886.00;;;;9824248;29;20258;-79
2024/01/13 11:14:25;;;;;;;30.27;18.23;;;;;3.50;101887.00;;;;9828463;29;20231;-80
2024/01/13 11:19:26;;;;;;;32.23;19.63;;;;;3.60;101877.00;;;;9822386;29;20290;-80
2024/01/13 11:24:28;;;;;;;31.63;18.53;;;;;3.60;101875.00;;;;9856007;29;20969;-76
2024/01/13 11:29:30;;;;;;;28.07;18.60;;;;;3.60;101863.00;;;;9812322;29;20247;-76
2024/01/13 11:34:33;;;;;;;31.83;19.23;;;;;3.60;101857.00;;;;9834858;29;20308;-75
2024/01/13 11:39:35;;;;;;;34.97;19.67;;;;;3.60;101858.00;;;;9838417;29;20304;-80
2024/01/13 11:44:47;;;;;;;29.97;19.87;;;;;3.60;101865.00;;;;9810763;29;20235;-79
2024/01/13 11:49:50;;;;;;;30.90;19.10;;;;;3.60;101860.00;;;;9827861;29;20235;-79
2024/01/13 11:54:59;;;;;;;32.23;19.77;;;;;3.50;101857.00;;;;9838841;29;20236;-76
2024/01/13 12:00:00;;;;;;;33.20;19.03;;;;;3.50;101845.00;;;;9826684;29;20252;-78
2024/01/13 12:05:07;;;;;;;31.80;21.00;;;;;3.40;101849.00;;;;9826507;30;20790;-78
2024/01/13 12:10:09;;;;;;;31.87;20.17;;;;;3.40;101844.00;;;;9837596;29;20231;-78
2024/01/13 12:15:10;;;;;;;33.87;20.87;;;;;3.40;101845.00;;;;9820704;29;20224;-80
2024/01/13 12:20:12;;;;;;;34.10;19.67;;;;;3.40;101829.00;;;;9821100;29;20343;-78
2024/01/13 12:25:13;;;;;;;38.57;21.07;;;;;3.40;101819.00;;;;9819507;30;20238;-78
2024/01/13 12:30:18;;;;;;;30.63;18.40;;;;;3.40;101821.00;;;;9822443;29;20307;-77
2024/01/13 12:35:19;;;;;;;32.00;19.40;;;;;3.30;101812.00;;;;9808391;30;20239;-80
2024/01/13 12:40:20;;;;;;;33.60;19.07;;;;;3.30;101806.00;;;;9822670;29;20266;-79
2024/01/13 12:45:24;;;;;;;33.33;19.67;;;;;3.30;101801.00;;;;9822046;29;20331;-79
2024/01/13 12:50:33;;;;;;;32.73;21.13;;;;;3.30;101790.00;;;;9830514;29;20225;-78
2024/01/13 12:55:34;;;;;;;36.90;21.60;;;;;3.20;101783.00;;;;9803546;29;20229;-78
2024/01/13 13:00:35;;;;;;;35.70;21.37;;;;;3.20;101776.00;;;;9826599;29;20240;-78
2024/01/13 13:05:36;;;;;;;40.53;21.30;;;;;3.20;101783.00;;;;9806738;29;20865;-78
2024/01/13 13:10:38;;;;;;;36.00;20.93;;;;;3.20;101774.00;;;;9813085;29;20231;-78
2024/01/13 13:15:39;;;;;;;36.97;22.30;;;;;3.20;101772.00;;;;9840335;29;20789;-78
2024/01/13 13:20:41;;;;;;;38.17;22.90;;;;;3.10;101759.00;;;;9823214;30;20232;-78
2024/01/13 13:25:43;;;;;;;38.30;22.50;;;;;3.10;101750.00;;;;9803789;29;20239;-78
2024/01/13 13:30:45;;;;;;;42.00;22.67;;;;;3.00;101751.00;;;;9836132;29;20232;-79
2024/01/13 13:35:46;;;;;;;41.57;21.83;;;;;3.00;101752.00;;;;9839496;29;20743;-79
2024/01/13 13:40:47;;;;;;;38.13;22.07;;;;;2.90;101754.00;;;;9806970;29;20384;-79
2024/01/13 13:45:49;;;;;;;41.53;23.47;;;;;2.90;101744.00;;;;9836895;29;20240;-78
2024/01/13 13:50:51;;;;;;;44.27;24.33;;;;;2.90;101734.00;;;;9830341;29;20224;-84
2024/01/13 13:55:52;;;;;;;42.90;23.33;;;;;2.90;101730.00;;;;9831500;29;20294;-84
2024/01/13 14:00:54;;;;;;;41.80;23.10;;;;;2.90;101722.00;;;;9829847;30;20236;-84
2024/01/13 14:05:55;;;;;;;42.43;24.13;;;;;2.90;101715.00;;;;9835507;29;20240;-82
2024/01/13 14:10:56;;;;;;;44.80;25.00;;;;;2.80;101712.00;;;;9831425;29;20235;-83
2024/01/13 14:15:57;;;;;;;40.67;24.27;;;;;2.80;101701.00;;;;9818655;29;20235;-83
2024/01/13 14:20:59;;;;;;;44.93;24.33;;;;;2.70;101707.00;;;;9819627;29;20268;-82
2024/01/13 14:26:01;;;;;;;43.27;24.30;;;;;2.70;101699.00;;;;9816169;29;20240;-82
2024/01/13 14:31:04;;;;;;;41.13;22.97;;;;;2.70;101700.00;;;;9838080;29;20303;-82
2024/01/13 14:36:07;;;;;;;42.83;23.03;;;;;2.60;101704.00;;;;9820375;29;20310;-82
2024/01/13 14:41:08;;;;;;;42.17;22.93;;;;;2.60;101697.00;;;;9822955;29;20231;-83
2024/01/13 14:46:09;;;;;;;40.93;23.27;;;;;2.60;101696.00;;;;9813170;29;20592;-83
2024/01/13 14:51:11;;;;;;;47.83;25.33;;;;;2.50;101688.00;;;;9842120;29;20231;-82
2024/01/13 14:56:13;;;;;;;50.23;25.50;;;;;2.40;101699.00;;;;9841504;29;20307;-83
2024/01/13 15:01:15;;;;;;;45.53;23.23;;;;;2.40;101695.00;;;;9836445;29;20323;-84
2024/01/13 15:06:16;;;;;;;46.53;24.10;;;;;2.40;101702.00;;;;9851631;29;20224;-85
2024/01/13 15:11:21;;;;;;;46.20;23.53;;;;;2.30;101701.00;;;;9842465;29;20240;-85
2024/01/13 15:16:22;;;;;;;44.70;25.93;;;;;2.30;101697.00;;;;9814424;29;20277;-83
2024/01/13 15:21:23;;;;;;;47.73;25.33;;;;;2.20;101699.00;;;;9822038;29;20294;-83
2024/01/13 15:26:25;;;;;;;47.77;24.23;;;;;2.20;101685.00;;;;9818700;30;20255;-84
2024/01/13 15:31:26;;;;;;;47.93;25.03;;;;;2.10;101669.00;;;;9843993;29;20302;-83
2024/01/13 15:36:27;;;;;;;41.60;24.70;;;;;2.10;101675.00;;;;9859656;29;20284;-84
2024/01/13 15:41:29;;;;;;;48.30;24.87;;;;;2.10;101672.00;;;;9826294;24;20469;-83
2024/01/13 15:46:30;;;;;;;46.67;23.50;;;;;2.00;101652.00;;;;9874610;29;20689;-86
2024/01/13 15:51:32;;;;;;;49.70;25.00;;;;;2.00;101647.00;;;;9859145;29;20236;-83
2024/01/13 15:56:34;;;;;;;43.83;24.10;;;;;2.00;101646.00;;;;9861134;29;20287;-84
2024/01/13 16:01:35;;;;;;;46.33;24.87;;;;;1.90;101640.00;;;;9844442;29;20231;-84
2024/01/13 16:06:36;;;;;;;48.07;24.27;;;;;1.90;101632.00;;;;9842202;29;20676;-85
2024/01/13 16:11:38;;;;;;;44.43;22.73;;;;;1.90;101636.00;;;;9851157;29;20290;-86
2024/01/13 16:16:39;;;;;;;48.63;24.87;;;;;1.90;101632.00;;;;9831697;29;20223;-86
2024/01/13 16:21:41;;;;;;;44.00;24.03;;;;;1.80;101632.00;;;;9841640;29;20975;-86
2024/01/13 16:26:44;;;;;;;55.40;24.23;;;;;1.80;101628.00;;;;9846001;29;20251;-87
2024/01/13 16:31:46;;;;;;;49.37;24.13;;;;;1.80;101616.00;;;;9846579;29;20226;-86
2024/01/13 16:36:47;;;;;;;46.07;22.20;;;;;1.70;101620.00;;;;9856527;29;20235;-83
2024/01/13 16:41:48;;;;;;;41.70;21.03;;;;;1.70;101622.00;;;;9852189;29;20247;-87
2024/01/13 16:46:50;;;;;;;45.90;24.03;;;;;1.70;101621.00;;;;9832947;29;20224;-88
2024/01/13 16:51:51;;;;;;;49.50;22.83;;;;;1.70;101636.00;;;;9841332;29;20228;-85
2024/01/13 16:56:55;;;;;;;46.07;23.40;;;;;1.60;101645.00;;;;9865978;29;20544;-86
2024/01/13 17:01:56;;;;;;;47.00;22.87;;;;;1.70;101633.00;;;;9852524;29;20269;-87
2024/01/13 17:06:57;;;;;;;47.00;22.57;;;;;1.60;101635.00;;;;9807047;29;20609;-85
2024/01/13 17:11:58;;;;;;;44.43;22.57;;;;;1.60;101646.00;;;;9814286;29;20282;-87
2024/01/13 17:17:01;;;;;;;46.60;23.23;;;;;1.60;101648.00;;;;9816777;29;20342;-87
2024/01/13 17:22:02;;;;;;;55.47;24.77;;;;;1.60;101648.00;;;;9837837;29;20479;-85
2024/01/13 17:27:04;;;;;;;45.70;22.90;;;;;1.60;101639.00;;;;9826289;29;20236;-83
2024/01/13 17:32:05;;;;;;;52.23;25.07;;;;;1.60;101633.00;;;;9808078;29;20235;-84
2024/01/13 17:37:06;;;;;;;44.50;22.77;;;;;1.50;101623.00;;;;9823413;29;20236;-83
2024/01/13 17:42:08;;;;;;;47.77;24.13;;;;;1.50;101624.00;;;;9827985;29;20231;-83
2024/01/13 17:47:09;;;;;;;48.27;23.90;;;;;1.50;101631.00;;;;9827230;29;20228;-84
2024/01/13 17:52:10;;;;;;;47.20;23.37;;;;;1.40;101634.00;;;;9826472;29;20232;-86
2024/01/13 17:57:11;;;;;;;55.60;24.47;;;;;1.40;101628.00;;;;9813868;29;20262;-84
2024/01/13 18:02:13;;;;;;;49.70;23.17;;;;;1.40;101631.00;;;;9830932;29;20245;-84
2024/01/13 18:07:15;;;;;;;46.57;23.70;;;;;1.40;101633.00;;;;9828451;29;20236;-84
2024/01/13 18:12:16;;;;;;;47.17;24.03;;;;;1.40;101629.00;;;;9844745;29;20243;-83
2024/01/13 18:17:18;;;;;;;52.57;23.73;;;;;1.40;101615.00;;;;9825364;29;20242;-84
2024/01/13 18:22:19;;;;;;;51.93;23.87;;;;;1.40;101618.00;;;;9821437;29;20289;-84
2024/01/13 18:27:20;;;;;;;55.73;24.87;;;;;1.40;101606.00;;;;9825266;29;20270;-84
2024/01/13 18:32:21;;;;;;;49.97;23.90;;;;;1.40;101614.00;;;;9828253;29;20325;-86
2024/01/13 18:37:22;;;;;;;48.80;23.13;;;;;1.40;101604.00;;;;9844868;29;20270;-84
2024/01/13 18:42:24;;;;;;;54.00;25.13;;;;;1.30;101592.00;;;;9827079;29;20548;-84
2024/01/13 18:47:25;;;;;;;50.20;23.60;;;;;1.30;101591.00;;;;9838887;29;20236;-84
2024/01/13 18:52:27;;;;;;;58.63;25.07;;;;;1.30;101591.00;;;;9826162;29;20371;-85
2024/01/13 18:57:29;;;;;;;58.90;25.33;;;;;1.20;101574.00;;;;9824656;29;20233;-84
2024/01/13 19:02:32;;;;;;;51.97;23.27;;;;;1.20;101586.00;;;;9837226;29;20239;-85
2024/01/13 19:07:33;;;;;;;53.67;25.13;;;;;1.20;101574.00;;;;9825399;29;20332;-85
2024/01/13 19:12:34;;;;;;;52.17;25.13;;;;;1.10;101575.00;;;;9820686;29;20236;-85
2024/01/13 19:17:35;;;;;;;50.93;24.27;;;;;1.10;101565.00;;;;9850498;29;20224;-85
2024/01/13 19:22:37;;;;;;;63.13;24.77;;;;;1.10;101562.00;;;;9833177;29;20232;-84
2024/01/13 19:27:39;;;;;;;53.17;26.80;;;;;1.00;101546.00;;;;9842541;29;20274;-84
2024/01/13 19:32:40;;;;;;;51.47;24.00;;;;;1.00;101535.00;;;;9822513;30;20236;-84
2024/01/13 19:37:42;;;;;;;67.80;27.73;;;;;1.00;101534.00;;;;9837078;29;20620;-85
2024/01/13 19:42:43;;;;;;;56.97;23.97;;;;;1.00;101538.00;;;;9814998;29;20800;-78
2024/01/13 19:47:44;;;;;;;52.60;26.23;;;;;1.00;101519.00;;;;9822149;29;20263;-79
2024/01/13 19:52:46;;;;;;;52.90;24.63;;;;;1.00;101524.00;;;;9814006;29;20232;-81
2024/01/13 19:57:47;;;;;;;58.73;25.60;;;;;1.00;101509.00;;;;9815051;29;20259;-80
2024/01/13 20:02:48;;;;;;;57.90;25.90;;;;;1.00;101500.00;;;;9828096;29;20305;-79
2024/01/13 20:07:49;;;;;;;60.73;26.50;;;;;1.00;101494.00;;;;9811976;29;20224;-79
2024/01/13 20:12:50;;;;;;;61.47;29.33;;;;;1.00;101494.00;;;;9823072;29;20228;-79
2024/01/13 20:17:51;;;;;;;65.53;28.17;;;;;1.00;101492.00;;;;9841662;29;20244;-78
2024/01/13 20:22:53;;;;;;;62.67;27.13;;;;;1.00;101491.00;;;;9812241;29;20246;-79
2024/01/13 20:27:54;;;;;;;64.07;28.73;;;;;1.00;101485.00;;;;9822794;29;20299;-80
2024/01/13 20:32:55;;;;;;;54.87;25.17;;;;;1.00;101478.00;;;;9807792;29;20232;-78
2024/01/13 20:37:56;;;;;;;61.53;27.80;;;;;1.00;101483.00;;;;9810013;30;20328;-80
2024/01/13 20:42:58;;;;;;;73.47;29.50;;;;;1.00;101474.00;;;;9809594;29;20699;-80
2024/01/13 20:47:59;;;;;;;64.07;29.80;;;;;1.00;101470.00;;;;9842813;29;20254;-79
2024/01/13 20:53:01;;;;;;;67.60;29.70;;;;;1.00;101464.00;;;;9851263;29;20270;-85
2024/01/13 20:58:04;;;;;;;69.63;29.47;;;;;1.00;101455.00;;;;9811420;29;20235;-85
2024/01/13 21:03:09;;;;;;;66.40;29.33;;;;;1.00;101448.00;;;;9850810;29;20279;-85
2024/01/13 21:08:11;;;;;;;63.07;28.63;;;;;1.00;101431.00;;;;9832259;29;20262;-85
2024/01/13 21:13:12;;;;;;;78.63;29.90;;;;;1.00;101430.00;;;;9837489;29;20315;-85
2024/01/13 21:18:13;;;;;;;64.77;29.97;;;;;1.00;101421.00;;;;9834370;29;20263;-85
2024/01/13 21:23:19;;;;;;;61.80;28.87;;;;;1.00;101404.00;;;;9830354;29;20249;-84
2024/01/13 21:28:20;;;;;;;72.70;29.40;;;;;1.00;101401.00;;;;9839646;29;20236;-83
2024/01/13 21:33:23;;;;;;;59.20;27.33;;;;;1.00;101393.00;;;;9832728;29;20243;-85
2024/01/13 21:38:24;;;;;;;63.93;30.63;;;;;1.00;101391.00;;;;9832766;29;20289;-84
2024/01/13 21:43:30;;;;;;;64.53;28.53;;;;;1.00;101387.00;;;;9830505;29;20236;-84
2024/01/13 21:48:32;;;;;;;68.70;29.53;;;;;1.00;101371.00;;;;9846231;29;20242;-84
2024/01/13 21:53:34;;;;;;;59.97;27.83;;;;;1.00;101363.00;;;;9813080;29;20246;-84
2024/01/13 21:58:36;;;;;;;50.20;22.73;;;;;1.00;101357.00;;;;9813029;29;20228;-85
2024/01/13 22:03:37;;;;;;;63.17;29.23;;;;;1.00;101345.00;;;;9805413;29;20235;-78
2024/01/13 22:08:38;;;;;;;68.33;28.33;;;;;0.90;101333.00;;;;9829867;29;20818;-79
2024/01/13 22:13:40;;;;;;;50.37;22.00;;;;;0.80;101335.00;;;;9841780;29;20315;-79
2024/01/13 22:18:41;;;;;;;60.37;26.53;;;;;0.60;101316.00;;;;9830236;29;21045;-81
2024/01/13 22:23:43;;;;;;;61.13;24.47;;;;;0.50;101314.00;;;;9826763;29;20232;-78
2024/01/13 22:28:45;;;;;;;61.33;27.23;;;;;0.50;101320.00;;;;9827763;29;20266;-78
2024/01/13 22:33:47;;;;;;;63.07;28.17;;;;;0.50;101318.00;;;;9827446;29;20232;-81
2024/01/13 22:38:48;;;;;;;63.93;30.00;;;;;0.50;101307.00;;;;9811205;29;20236;-79
2024/01/13 22:43:50;;;;;;;73.03;29.73;;;;;0.50;101323.00;;;;9830793;29;20240;-79
2024/01/13 22:48:51;;;;;;;68.60;27.07;;;;;0.50;101311.00;;;;9841024;29;20953;-79
2024/01/13 22:53:53;;;;;;;68.30;27.07;;;;;0.60;101305.00;;;;9839292;29;20328;-78
2024/01/13 22:58:54;;;;;;;67.20;29.20;;;;;0.60;101293.00;;;;9815311;29;20699;-79
2024/01/13 23:03:55;;;;;;;74.30;31.63;;;;;0.60;101285.00;;;;9826116;29;20239;-80
2024/01/13 23:08:57;;;;;;;67.47;29.23;;;;;0.70;101284.00;;;;9807876;30;20298;-78
2024/01/13 23:13:58;;;;;;;64.07;27.53;;;;;0.60;101282.00;;;;9822022;29;20236;-84
2024/01/13 23:18:59;;;;;;;63.70;29.20;;;;;0.60;101272.00;;;;9837844;29;20292;-85
2024/01/13 23:24:04;;;;;;;59.57;28.60;;;;;0.60;101262.00;;;;9812535;29;20242;-84
2024/01/13 23:29:05;;;;;;;69.50;29.40;;;;;0.60;101272.00;;;;9838618;29;20252;-85
2024/01/13 23:34:07;;;;;;;74.97;29.10;;;;;0.70;101261.00;;;;9839720;29;20246;-84
2024/01/13 23:39:14;;;;;;;73.63;30.03;;;;;0.70;101259.00;;;;9805475;29;20296;-84
2024/01/13 23:44:15;;;;;;;59.80;26.93;;;;;0.70;101255.00;;;;9820573;29;20992;-85
2024/01/13 23:49:16;;;;;;;60.93;28.93;;;;;0.70;101242.00;;;;9805893;30;20262;-84
2024/01/13 23:54:18;;;;;;;68.73;28.63;;;;;0.80;101241.00;;;;9804294;30;20696;-85
2024/01/13 23:59:19;;;;;;;62.43;27.77;;;;;0.80;101232.00;;;;9820792;29;20246;-86
